Time;durP1;ratioP1;P1;durP2;ratioP2;P2;SDS_P1;SDS_P2;PMS_P1;PMS_P2;Temp;Humidity;BMP_temperature;BMP_pressure;BME280_temperature;BME280_humidity;BME280_pressure;Samples;Min_cycle;Max_cycle;Signal;HPM_P1;HPM_P2
2020/12/12 00:34:30;;;;;;;63.53;40.60;;;;;;;;;;6253140;23;20499;-96
2020/12/12 00:36:56;;;;;;;67.03;40.23;;;;;;;;;;6259733;23;20433;-96
2020/12/12 00:39:23;;;;;;;53.67;35.30;;;;;;;;;;6260373;23;20414;-96
2020/12/12 00:41:49;;;;;;;60.03;38.40;;;;;;;;;;6255961;23;20505;-96
2020/12/12 00:44:16;;;;;;;60.17;37.50;;;;;;;;;;6255956;23;20406;-96
2020/12/12 00:46:45;;;;;;;57.22;36.17;;;;;;;;;;6255400;23;20438;-96
2020/12/12 00:49:12;;;;;;;54.43;35.50;;;;;;;;;;6259048;23;20242;-96
2020/12/12 00:51:39;;;;;;;55.10;34.33;;;;;;;;;;6259624;23;20419;-96
2020/12/12 00:54:05;;;;;;;60.00;37.60;;;;;;;;;;6256418;23;20414;-95
2020/12/12 00:56:32;;;;;;;60.53;38.70;;;;;;;;;;6256880;23;20416;-95
2020/12/12 00:58:58;;;;;;;60.43;35.43;;;;;;;;;;6254034;23;20209;-95
2020/12/12 01:01:24;;;;;;;51.65;36.63;;;;;;;;;;6255631;23;20730;-96
2020/12/12 01:03:50;;;;;;;53.43;35.00;;;;;;;;;;6252695;23;20179;-95
2020/12/12 01:06:17;;;;;;;59.20;38.90;;;;;;;;;;6255702;23;20424;-95
2020/12/12 01:08:44;;;;;;;52.20;33.70;;;;;;;;;;6256554;23;20413;-95
2020/12/12 01:11:11;;;;;;;45.53;33.67;;;;;;;;;;6254637;23;20456;-94
2020/12/12 01:13:38;;;;;;;48.30;33.57;;;;;;;;;;6257428;23;20414;-94
2020/12/12 01:16:05;;;;;;;49.23;32.63;;;;;;;;;;6254450;23;20410;-94
2020/12/12 01:18:31;;;;;;;48.67;32.30;;;;;;;;;;6255641;23;20448;-94
2020/12/12 01:20:57;;;;;;;43.10;30.20;;;;;;;;;;6254116;23;20410;-93
2020/12/12 01:23:23;;;;;;;48.97;31.07;;;;;;;;;;6254683;23;20410;-94
2020/12/12 01:25:50;;;;;;;49.40;31.70;;;;;;;;;;6253571;23;20412;-94
2020/12/12 01:28:18;;;;;;;48.37;32.20;;;;;;;;;;6255810;23;20409;-94
2020/12/12 01:30:44;;;;;;;50.63;33.20;;;;;;;;;;6255439;23;20445;-94
2020/12/12 01:33:10;;;;;;;47.93;32.30;;;;;;;;;;6254366;23;20418;-93
2020/12/12 01:35:36;;;;;;;50.20;32.50;;;;;;;;;;6256135;22;20438;-94
2020/12/12 01:38:02;;;;;;;54.47;31.93;;;;;;;;;;6253735;23;20496;-93
2020/12/12 01:40:28;;;;;;;48.00;31.17;;;;;;;;;;6250951;23;20413;-94
2020/12/12 01:42:55;;;;;;;50.70;31.83;;;;;;;;;;6254251;23;20460;-93
2020/12/12 01:45:21;;;;;;;48.65;31.10;;;;;;;;;;6256070;23;20416;-93
2020/12/12 01:47:47;;;;;;;49.80;31.33;;;;;;;;;;6254394;23;20187;-95
2020/12/12 01:50:14;;;;;;;47.83;33.03;;;;;;;;;;6254904;23;20460;-92
2020/12/12 01:52:40;;;;;;;46.17;29.73;;;;;;;;;;6255157;23;20421;-94
2020/12/12 01:55:06;;;;;;;57.33;30.70;;;;;;;;;;6249304;23;20417;-94
2020/12/12 01:57:32;;;;;;;48.38;32.35;;;;;;;;;;6250427;23;20836;-94
2020/12/12 01:59:59;;;;;;;51.95;31.25;;;;;;;;;;6248992;23;20739;-93
2020/12/12 02:02:25;;;;;;;50.60;31.70;;;;;;;;;;6250530;23;20182;-94
2020/12/12 02:04:53;;;;;;;47.60;30.50;;;;;;;;;;6248641;23;20186;-94
2020/12/12 02:07:19;;;;;;;44.63;30.63;;;;;;;;;;6249772;23;20464;-94
2020/12/12 02:09:46;;;;;;;47.83;31.50;;;;;;;;;;6253074;23;20449;-94
2020/12/12 02:12:12;;;;;;;48.35;32.50;;;;;;;;;;6254917;23;20412;-94
2020/12/12 02:14:38;;;;;;;48.40;31.33;;;;;;;;;;6258476;23;20175;-96
2020/12/12 02:17:06;;;;;;;53.03;31.83;;;;;;;;;;6256966;23;20417;-93
2020/12/12 02:19:32;;;;;;;50.10;32.97;;;;;;;;;;6252998;23;20491;-93
2020/12/12 02:21:59;;;;;;;53.30;32.93;;;;;;;;;;6254602;23;20405;-93
2020/12/12 02:24:29;;;;;;;61.37;38.13;;;;;;;;;;6256423;23;20402;-93
2020/12/12 02:26:55;;;;;;;52.97;36.40;;;;;;;;;;6254588;23;20501;-92
2020/12/12 02:29:21;;;;;;;60.20;36.73;;;;;;;;;;6255240;23;20448;-94
2020/12/12 02:31:47;;;;;;;60.67;38.83;;;;;;;;;;6254675;23;20420;-93
2020/12/12 02:34:13;;;;;;;65.00;39.10;;;;;;;;;;6255999;23;20504;-93
2020/12/12 02:36:39;;;;;;;62.40;39.37;;;;;;;;;;6257074;23;20405;-93
2020/12/12 02:39:07;;;;;;;58.57;38.03;;;;;;;;;;6255630;23;20432;-93
2020/12/12 02:41:33;;;;;;;56.47;37.13;;;;;;;;;;6257444;23;20412;-93
2020/12/12 02:43:59;;;;;;;56.53;36.10;;;;;;;;;;6256516;23;20401;-94
2020/12/12 02:46:25;;;;;;;61.20;37.83;;;;;;;;;;6255999;23;20482;-94
2020/12/12 02:48:52;;;;;;;60.13;38.50;;;;;;;;;;6253180;23;20416;-92
2020/12/12 02:51:18;;;;;;;60.60;37.20;;;;;;;;;;6256065;22;20556;-93
2020/12/12 02:53:44;;;;;;;57.80;37.80;;;;;;;;;;6254825;23;20410;-92
2020/12/12 02:56:13;;;;;;;65.50;40.90;;;;;;;;;;6255293;23;20985;-93
2020/12/12 02:58:39;;;;;;;69.77;44.13;;;;;;;;;;6256704;23;20463;-93
2020/12/12 03:01:05;;;;;;;76.70;43.87;;;;;;;;;;6254825;23;20406;-94
2020/12/12 03:03:31;;;;;;;75.43;45.97;;;;;;;;;;6255803;23;20433;-93
2020/12/12 03:05:57;;;;;;;105.57;56.70;;;;;;;;;;6254205;22;20471;-93
2020/12/12 03:08:23;;;;;;;82.40;47.87;;;;;;;;;;6257395;23;20405;-93
2020/12/12 03:10:49;;;;;;;122.17;56.90;;;;;;;;;;6255908;23;20940;-93
2020/12/12 03:13:16;;;;;;;96.27;53.57;;;;;;;;;;6257990;23;20463;-93
2020/12/12 03:15:42;;;;;;;140.80;58.40;;;;;;;;;;6257010;23;20406;-93
2020/12/12 03:18:08;;;;;;;110.97;52.87;;;;;;;;;;6257445;23;20422;-92
2020/12/12 03:20:34;;;;;;;102.20;51.10;;;;;;;;;;6257928;23;20991;-93
2020/12/12 03:23:00;;;;;;;95.90;50.07;;;;;;;;;;6255413;23;20401;-92
2020/12/12 03:25:26;;;;;;;92.33;50.17;;;;;;;;;;6256883;23;20412;-92
2020/12/12 03:27:52;;;;;;;95.93;48.33;;;;;;;;;;6256490;23;20397;-93
2020/12/12 03:30:19;;;;;;;99.20;49.63;;;;;;;;;;6257551;23;20480;-92
2020/12/12 03:32:45;;;;;;;97.70;51.80;;;;;;;;;;6256420;23;20425;-94
2020/12/12 03:35:11;;;;;;;114.20;50.93;;;;;;;;;;6257480;23;20434;-93
2020/12/12 03:37:37;;;;;;;111.37;55.83;;;;;;;;;;6251776;23;20409;-94
2020/12/12 03:40:03;;;;;;;118.50;57.23;;;;;;;;;;6255127;23;20763;-93
2020/12/12 03:42:29;;;;;;;102.83;53.60;;;;;;;;;;6250186;23;20969;-93
2020/12/12 03:44:55;;;;;;;99.83;51.30;;;;;;;;;;6254601;23;20413;-92
2020/12/12 03:47:22;;;;;;;92.40;49.67;;;;;;;;;;6256796;23;20420;-93
2020/12/12 03:49:48;;;;;;;102.03;53.30;;;;;;;;;;6255618;23;20783;-93
2020/12/12 03:52:14;;;;;;;96.67;51.43;;;;;;;;;;6257003;23;20406;-92
2020/12/12 03:54:40;;;;;;;109.50;54.40;;;;;;;;;;6255000;23;20410;-93
2020/12/12 03:57:06;;;;;;;103.23;54.50;;;;;;;;;;6257277;23;20412;-92
2020/12/12 03:59:32;;;;;;;97.43;54.17;;;;;;;;;;6256583;23;20413;-93
2020/12/12 04:01:58;;;;;;;95.87;53.33;;;;;;;;;;6256829;23;20480;-93
2020/12/12 04:04:25;;;;;;;98.10;54.23;;;;;;;;;;6255519;23;21227;-93
2020/12/12 04:06:51;;;;;;;89.30;52.67;;;;;;;;;;6254433;23;20410;-94
2020/12/12 04:09:17;;;;;;;100.40;56.20;;;;;;;;;;6256280;23;20410;-93
2020/12/12 04:11:43;;;;;;;99.03;55.80;;;;;;;;;;6255648;23;20410;-93
2020/12/12 04:14:09;;;;;;;100.37;56.90;;;;;;;;;;6257884;23;20427;-93
2020/12/12 04:16:35;;;;;;;94.27;52.30;;;;;;;;;;6255301;23;20504;-93
2020/12/12 04:19:01;;;;;;;96.70;54.70;;;;;;;;;;6256685;23;20421;-93
2020/12/12 04:21:28;;;;;;;105.67;54.57;;;;;;;;;;6256232;23;20418;-92
2020/12/12 04:23:54;;;;;;;89.67;51.20;;;;;;;;;;6256061;23;20409;-93
2020/12/12 04:26:20;;;;;;;93.53;54.40;;;;;;;;;;6257402;23;20416;-93
2020/12/12 04:28:46;;;;;;;96.63;55.77;;;;;;;;;;6255353;23;20414;-92
2020/12/12 04:31:12;;;;;;;102.73;54.10;;;;;;;;;;6256171;23;20549;-93
2020/12/12 04:33:38;;;;;;;88.00;49.80;;;;;;;;;;6253039;23;20417;-93
2020/12/12 04:36:04;;;;;;;101.23;55.73;;;;;;;;;;6255878;23;20761;-93
2020/12/12 04:38:35;;;;;;;93.63;52.77;;;;;;;;;;6255458;23;20887;-92
2020/12/12 04:41:01;;;;;;;100.87;55.60;;;;;;;;;;6255332;23;20410;-92
2020/12/12 04:43:30;;;;;;;99.43;57.20;;;;;;;;;;6252363;23;20413;-92
2020/12/12 04:45:56;;;;;;;114.60;63.30;;;;;;;;;;6254767;23;20436;-92
2020/12/12 04:48:22;;;;;;;127.63;74.30;;;;;;;;;;6255336;23;20464;-92
2020/12/12 04:50:48;;;;;;;131.90;73.00;;;;;;;;;;6254822;23;20497;-92
2020/12/12 04:53:15;;;;;;;126.00;74.37;;;;;;;;;;6256459;23;20414;-93
2020/12/12 04:55:44;;;;;;;119.13;68.60;;;;;;;;;;6255235;23;20410;-93
2020/12/12 04:58:12;;;;;;;108.33;62.53;;;;;;;;;;6257281;23;20409;-92
2020/12/12 05:00:39;;;;;;;105.70;62.87;;;;;;;;;;6254977;23;20935;-93
2020/12/12 05:03:05;;;;;;;95.77;57.17;;;;;;;;;;6254788;23;20405;-93
2020/12/12 05:05:31;;;;;;;99.40;56.70;;;;;;;;;;6254553;23;20436;-92
2020/12/12 05:07:57;;;;;;;99.57;55.00;;;;;;;;;;6255906;23;20778;-93
2020/12/12 05:10:26;;;;;;;82.90;51.13;;;;;;;;;;6256519;22;20453;-92
2020/12/12 05:12:53;;;;;;;91.82;56.90;;;;;;;;;;6253821;23;20414;-92
2020/12/12 05:15:19;;;;;;;87.03;51.93;;;;;;;;;;6256717;23;20174;-93
2020/12/12 05:17:46;;;;;;;99.67;56.93;;;;;;;;;;6254958;23;20409;-93
2020/12/12 05:20:13;;;;;;;93.60;55.87;;;;;;;;;;6256988;23;20417;-92
2020/12/12 05:22:39;;;;;;;102.33;55.87;;;;;;;;;;6254622;23;20409;-92
2020/12/12 05:25:05;;;;;;;94.40;51.50;;;;;;;;;;6256404;23;20436;-92
2020/12/12 05:27:31;;;;;;;103.17;55.57;;;;;;;;;;6254879;23;20417;-92
2020/12/12 05:29:59;;;;;;;79.87;47.70;;;;;;;;;;6255422;23;20491;-94
2020/12/12 05:32:25;;;;;;;82.27;45.70;;;;;;;;;;6256280;23;20488;-93
2020/12/12 05:34:53;;;;;;;80.70;49.90;;;;;;;;;;6254778;23;20441;-93
2020/12/12 05:37:19;;;;;;;98.50;51.17;;;;;;;;;;6256287;23;20459;-93
2020/12/12 05:39:48;;;;;;;81.03;46.87;;;;;;;;;;6255437;23;20489;-93
2020/12/12 05:42:18;;;;;;;76.50;46.00;;;;;;;;;;6256060;23;20743;-93
2020/12/12 05:44:46;;;;;;;81.63;47.07;;;;;;;;;;6254565;23;20410;-94
2020/12/12 05:47:14;;;;;;;80.87;46.90;;;;;;;;;;6254823;23;20409;-93
2020/12/12 05:49:40;;;;;;;80.97;45.40;;;;;;;;;;6252761;23;20450;-93
2020/12/12 05:52:06;;;;;;;69.27;41.13;;;;;;;;;;6256497;23;20471;-93
2020/12/12 05:54:33;;;;;;;67.97;43.00;;;;;;;;;;6256342;23;20410;-93
2020/12/12 05:56:59;;;;;;;73.77;45.53;;;;;;;;;;6254105;23;20919;-93
2020/12/12 05:59:26;;;;;;;83.80;46.67;;;;;;;;;;6255202;23;20406;-94
2020/12/12 06:01:54;;;;;;;78.87;45.67;;;;;;;;;;6253004;23;20402;-92
2020/12/12 06:04:24;;;;;;;82.70;45.93;;;;;;;;;;6255932;23;20413;-93
2020/12/12 06:06:51;;;;;;;82.00;47.60;;;;;;;;;;6252281;23;20441;-93
2020/12/12 06:09:17;;;;;;;89.13;50.50;;;;;;;;;;6254206;23;20418;-93
2020/12/12 06:11:44;;;;;;;86.87;50.47;;;;;;;;;;6255620;23;20453;-94
2020/12/12 06:14:10;;;;;;;118.60;55.83;;;;;;;;;;6258433;22;20452;-93
2020/12/12 06:16:37;;;;;;;91.60;54.03;;;;;;;;;;6258724;23;20405;-92
2020/12/12 06:19:06;;;;;;;106.67;55.77;;;;;;;;;;6256650;23;20418;-94
2020/12/12 06:21:33;;;;;;;124.53;64.80;;;;;;;;;;6257152;23;20460;-93
2020/12/12 06:24:00;;;;;;;131.50;72.53;;;;;;;;;;6255390;23;20802;-94
2020/12/12 06:26:42;;;;;;;138.20;76.47;;;;;;;;;;6257074;23;20418;-93
2020/12/12 06:29:09;;;;;;;140.83;76.70;;;;;;;;;;6255185;23;20402;-93
2020/12/12 06:31:36;;;;;;;124.10;72.47;;;;;;;;;;6257700;23;20449;-94
2020/12/12 06:34:02;;;;;;;133.67;72.27;;;;;;;;;;6256169;23;20437;-93
2020/12/12 06:36:29;;;;;;;128.03;69.93;;;;;;;;;;6257526;23;20410;-92
2020/12/12 06:39:19;;;;;;;106.77;59.50;;;;;;;;;;6256944;23;20414;-94
2020/12/12 06:41:46;;;;;;;89.57;52.17;;;;;;;;;;6256868;23;20423;-93
2020/12/12 06:44:12;;;;;;;86.77;50.30;;;;;;;;;;6255453;23;20401;-92
2020/12/12 06:46:59;;;;;;;72.90;41.00;;;;;;;;;;6256371;23;20417;-92
2020/12/12 06:49:25;;;;;;;68.53;42.77;;;;;;;;;;6246611;22;20421;-92
2020/12/12 06:51:51;;;;;;;67.40;37.47;;;;;;;;;;6255590;23;20409;-93
2020/12/12 06:54:17;;;;;;;52.10;33.93;;;;;;;;;;6256890;23;20414;-92
2020/12/12 06:56:44;;;;;;;47.00;30.50;;;;;;;;;;6256237;23;20401;-91
2020/12/12 06:59:30;;;;;;;59.03;35.23;;;;;;;;;;6256772;23;20428;-92
2020/12/12 07:01:56;;;;;;;62.43;36.27;;;;;;;;;;6254548;23;20414;-92
2020/12/12 07:04:23;;;;;;;52.37;33.70;;;;;;;;;;6256182;23;20448;-92
2020/12/12 07:06:55;;;;;;;44.83;29.33;;;;;;;;;;6254984;23;20436;-92
2020/12/12 07:09:22;;;;;;;49.57;33.70;;;;;;;;;;6254826;23;20955;-92
2020/12/12 07:11:49;;;;;;;46.57;31.33;;;;;;;;;;6255981;23;20476;-92
2020/12/12 07:14:16;;;;;;;53.33;33.87;;;;;;;;;;6256137;23;21213;-92
2020/12/12 07:16:42;;;;;;;52.87;33.30;;;;;;;;;;6256429;23;20432;-92
2020/12/12 07:19:10;;;;;;;42.27;26.77;;;;;;;;;;6253832;23;20436;-91
2020/12/12 07:21:38;;;;;;;40.00;25.97;;;;;;;;;;6255443;23;20413;-91
2020/12/12 07:24:04;;;;;;;57.47;36.27;;;;;;;;;;6254657;23;20891;-92
2020/12/12 07:26:30;;;;;;;51.93;33.60;;;;;;;;;;6257186;23;20470;-92
2020/12/12 07:28:57;;;;;;;45.93;29.80;;;;;;;;;;6254828;23;20405;-96
2020/12/12 07:31:23;;;;;;;41.03;28.60;;;;;;;;;;6258323;23;20453;-95
2020/12/12 07:33:49;;;;;;;44.07;28.33;;;;;;;;;;6257251;23;20436;-95
2020/12/12 07:36:15;;;;;;;43.90;28.20;;;;;;;;;;6256974;23;20406;-96
2020/12/12 07:38:41;;;;;;;39.43;26.77;;;;;;;;;;6257160;23;20401;-93
2020/12/12 07:41:10;;;;;;;28.17;17.60;;;;;;;;;;6251207;23;20418;-94
2020/12/12 07:43:36;;;;;;;29.27;20.37;;;;;;;;;;6254688;23;20444;-94
2020/12/12 07:46:06;;;;;;;34.97;24.17;;;;;;;;;;6252222;23;20409;-93
2020/12/12 07:48:32;;;;;;;37.47;24.37;;;;;;;;;;6253592;23;20417;-95
2020/12/12 07:50:58;;;;;;;35.63;25.67;;;;;;;;;;6253551;23;20460;-94
2020/12/12 07:53:24;;;;;;;37.47;24.77;;;;;;;;;;6254986;23;20410;-94
2020/12/12 07:55:55;;;;;;;39.77;27.83;;;;;;;;;;6255827;23;20412;-93
2020/12/12 07:58:22;;;;;;;41.33;27.70;;;;;;;;;;6253806;23;20810;-95
2020/12/12 08:00:55;;;;;;;40.83;28.27;;;;;;;;;;6255227;23;21118;-94
2020/12/12 08:03:22;;;;;;;42.80;28.23;;;;;;;;;;6254303;23;20414;-94
2020/12/12 08:05:48;;;;;;;40.37;27.90;;;;;;;;;;6254931;23;20406;-93
2020/12/12 08:08:14;;;;;;;33.87;23.23;;;;;;;;;;6254820;23;20534;-96
2020/12/12 08:10:40;;;;;;;40.70;25.47;;;;;;;;;;6266570;22;20441;-95
2020/12/12 08:13:06;;;;;;;40.40;27.73;;;;;;;;;;6285929;22;20401;-95
2020/12/12 08:15:38;;;;;;;44.03;29.53;;;;;;;;;;6287436;22;20401;-96
2020/12/12 08:18:11;;;;;;;48.07;34.03;;;;;;;;;;6286091;22;20409;-94
2020/12/12 08:20:38;;;;;;;51.27;33.93;;;;;;;;;;6287011;22;20436;-94
2020/12/12 08:23:04;;;;;;;46.23;34.23;;;;;;;;;;6287197;22;20405;-95
2020/12/12 08:25:31;;;;;;;46.20;32.80;;;;;;;;;;6285228;22;20518;-95
2020/12/12 08:27:57;;;;;;;48.13;32.87;;;;;;;;;;6286833;22;20401;-96
2020/12/12 08:30:25;;;;;;;46.67;32.53;;;;;;;;;;6289700;22;20448;-95
2020/12/12 08:32:51;;;;;;;48.43;32.80;;;;;;;;;;6286205;22;20417;-96
2020/12/12 08:35:21;;;;;;;46.10;32.03;;;;;;;;;;6284925;22;20459;-95
2020/12/12 08:37:56;;;;;;;46.27;31.70;;;;;;;;;;6284771;22;20400;-94
2020/12/12 08:40:22;;;;;;;51.37;34.07;;;;;;;;;;6284698;22;20416;-95
2020/12/12 08:43:00;;;;;;;51.53;36.37;;;;;;;;;;6286359;22;20966;-94
2020/12/12 08:45:27;;;;;;;102.83;68.00;;;;;;;;;;6284439;22;21198;-95
2020/12/12 08:47:59;;;;;;;126.60;80.87;;;;;;;;;;6282753;22;20861;-94
2020/12/12 08:50:25;;;;;;;144.53;91.17;;;;;;;;;;6283410;22;20683;-95
2020/12/12 08:52:51;;;;;;;156.77;94.20;;;;;;;;;;6283299;22;20436;-95
2020/12/12 08:55:18;;;;;;;137.27;90.90;;;;;;;;;;6282981;22;20420;-95
2020/12/12 08:58:06;;;;;;;163.67;100.70;;;;;;;;;;6289410;22;20443;-96
2020/12/12 09:00:32;;;;;;;122.20;76.43;;;;;;;;;;6295310;22;20505;-95
2020/12/12 09:03:01;;;;;;;87.33;59.53;;;;;;;;;;6282423;22;20409;-95
2020/12/12 09:05:34;;;;;;;96.53;62.23;;;;;;;;;;6284681;22;20408;-95
2020/12/12 09:08:14;;;;;;;82.87;55.97;;;;;;;;;;6284775;22;20428;-95
2020/12/12 09:10:41;;;;;;;71.90;47.20;;;;;;;;;;6285895;22;20441;-93
2020/12/12 09:13:08;;;;;;;70.83;48.00;;;;;;;;;;6284909;22;20413;-94
2020/12/12 09:15:34;;;;;;;60.90;42.90;;;;;;;;;;6285134;22;20418;-94
2020/12/12 09:18:00;;;;;;;68.07;46.90;;;;;;;;;;6286318;22;20412;-94
2020/12/12 09:20:29;;;;;;;66.63;44.83;;;;;;;;;;6283411;22;20405;-93
2020/12/12 09:28:06;;;;;;;73.13;50.00;;;;;;;;;;6263353;22;20482;-96
2020/12/12 09:33:07;;;;;;;73.93;50.77;;;;;;;;;;6260454;22;20445;-92
2020/12/12 09:44:08;;;;;;;65.07;44.43;;;;;;;;;;6210452;22;20422;-96
2020/12/12 09:46:40;;;;;;;53.50;39.50;;;;;;;;;;6206555;23;20418;-96
2020/12/12 09:49:06;;;;;;;52.63;38.10;;;;;;;;;;6223563;22;20491;-96
2020/12/12 09:51:32;;;;;;;47.73;35.87;;;;;;;;;;6251558;22;20456;-96
2020/12/12 09:53:59;;;;;;;51.03;36.30;;;;;;;;;;6281136;22;20528;-96
2020/12/12 09:56:25;;;;;;;48.10;34.67;;;;;;;;;;6283836;22;20420;-95
2020/12/12 09:58:51;;;;;;;51.97;36.40;;;;;;;;;;6290000;22;20459;-96
2020/12/12 10:01:18;;;;;;;47.07;34.00;;;;;;;;;;6284253;22;20401;-94
2020/12/12 10:03:44;;;;;;;51.70;35.30;;;;;;;;;;6282939;22;20401;-96
2020/12/12 10:06:11;;;;;;;47.97;34.97;;;;;;;;;;6292274;22;20405;-96
2020/12/12 10:08:37;;;;;;;47.63;34.27;;;;;;;;;;6283486;22;20448;-96
2020/12/12 10:21:53;;;;;;;42.07;30.00;;;;;;;;;;6237129;22;20453;-96
2020/12/12 10:50:00;;;;;;;48.00;33.95;;;;;;;;;;6207164;22;20475;-96
2020/12/12 11:27:45;;;;;;;37.70;29.07;;;;;;;;;;6250943;22;20841;-96
2020/12/12 11:30:12;;;;;;;36.20;28.20;;;;;;;;;;6288993;22;20420;-96
2020/12/12 12:37:56;;;;;;;23.77;19.80;;;;;;;;;;6239035;22;20432;-96
2020/12/12 12:40:22;;;;;;;27.20;19.90;;;;;;;;;;6296634;22;20400;-96
2020/12/12 12:56:44;;;;;;;24.07;19.23;;;;;;;;;;6238988;22;20441;-96
2020/12/12 13:06:55;;;;;;;24.17;18.53;;;;;;;;;;6280871;22;20439;-96
2020/12/12 13:09:21;;;;;;;27.40;21.30;;;;;;;;;;6303941;22;20453;-96
2020/12/12 13:11:48;;;;;;;26.33;19.53;;;;;;;;;;6293477;22;20452;-96
2020/12/12 13:14:15;;;;;;;31.70;23.27;;;;;;;;;;6290290;22;20409;-94
2020/12/12 13:16:43;;;;;;;32.07;24.10;;;;;;;;;;6285236;22;20400;-95
2020/12/12 13:19:19;;;;;;;36.90;25.97;;;;;;;;;;6293126;22;20409;-96
2020/12/12 13:35:45;;;;;;;39.00;28.80;;;;;;;;;;6295450;22;20505;-96
2020/12/12 13:43:23;;;;;;;36.50;27.30;;;;;;;;;;6239112;22;20458;-96
2020/12/12 13:45:49;;;;;;;36.60;28.37;;;;;;;;;;6261798;23;20406;-96
2020/12/12 13:48:15;;;;;;;38.07;28.53;;;;;;;;;;6256369;22;21155;-94
2020/12/12 13:50:42;;;;;;;40.20;31.30;;;;;;;;;;6256299;23;20460;-96
2020/12/12 13:53:09;;;;;;;42.07;31.97;;;;;;;;;;6256351;22;20429;-95
2020/12/12 13:55:37;;;;;;;44.00;31.87;;;;;;;;;;6254680;23;20456;-95
2020/12/12 13:58:05;;;;;;;40.37;31.60;;;;;;;;;;6261218;23;20502;-96
2020/12/12 14:00:48;;;;;;;42.27;33.27;;;;;;;;;;6268053;22;20426;-96
2020/12/12 14:03:14;;;;;;;44.30;34.70;;;;;;;;;;6262000;23;20414;-96
2020/12/12 14:05:43;;;;;;;39.63;31.87;;;;;;;;;;6257226;23;20417;-96
2020/12/12 14:08:14;;;;;;;42.03;28.93;;;;;;;;;;6262420;23;20433;-96
2020/12/12 14:11:05;;;;;;;41.50;30.97;;;;;;;;;;6265101;23;20453;-96
2020/12/12 14:24:46;;;;;;;43.87;30.77;;;;;;;;;;6244526;22;20528;-93
2020/12/12 14:29:57;;;;;;;38.00;27.53;;;;;;;;;;6290598;22;20399;-95
2020/12/12 14:32:23;;;;;;;41.13;29.47;;;;;;;;;;6290447;22;20533;-96
2020/12/12 14:34:49;;;;;;;31.43;25.40;;;;;;;;;;6292376;22;20409;-93
2020/12/12 14:37:16;;;;;;;31.80;25.03;;;;;;;;;;6289369;22;20417;-96
2020/12/12 14:40:28;;;;;;;28.57;22.47;;;;;;;;;;6303623;22;20442;-95
2020/12/12 14:43:09;;;;;;;30.90;22.60;;;;;;;;;;6282932;22;20437;-96
2020/12/12 14:52:17;;;;;;;30.13;23.53;;;;;;;;;;6245759;22;20445;-96
2020/12/12 14:54:57;;;;;;;31.20;23.70;;;;;;;;;;6246360;22;20451;-96
2020/12/12 14:57:24;;;;;;;30.80;23.63;;;;;;;;;;6246257;22;20402;-94
2020/12/12 14:59:51;;;;;;;29.10;22.43;;;;;;;;;;6246236;22;20400;-96
2020/12/12 15:02:17;;;;;;;29.17;23.30;;;;;;;;;;6245532;22;20394;-96
2020/12/12 15:04:45;;;;;;;34.87;26.30;;;;;;;;;;6220333;23;20414;-96
2020/12/12 16:30:48;;;;;;;65.57;43.83;;;;;;;;;;6247870;22;20456;-95
2020/12/12 16:33:14;;;;;;;62.90;43.50;;;;;;;;;;6292769;22;20413;-96
2020/12/12 16:35:40;;;;;;;58.60;43.27;;;;;;;;;;6293384;22;20396;-95
2020/12/12 16:38:06;;;;;;;65.10;45.97;;;;;;;;;;6289809;22;20419;-96
2020/12/12 16:40:32;;;;;;;65.50;45.10;;;;;;;;;;6284558;22;20412;-96
2020/12/12 16:42:59;;;;;;;66.63;46.00;;;;;;;;;;6285658;22;20405;-95
2020/12/12 16:45:27;;;;;;;69.40;48.57;;;;;;;;;;6284381;22;20428;-95
2020/12/12 16:47:54;;;;;;;76.93;54.60;;;;;;;;;;6287089;22;20401;-95
2020/12/12 16:53:31;;;;;;;63.83;44.20;;;;;;;;;;6298433;22;20436;-96
2020/12/12 16:56:00;;;;;;;69.07;47.97;;;;;;;;;;6270419;22;20484;-96
2020/12/12 16:59:00;;;;;;;58.03;42.10;;;;;;;;;;6270128;22;20428;-96
2020/12/12 17:01:26;;;;;;;56.33;40.00;;;;;;;;;;6184659;22;20447;-96
2020/12/12 17:03:53;;;;;;;70.73;45.53;;;;;;;;;;6286790;22;20421;-96
2020/12/12 17:06:19;;;;;;;79.10;51.17;;;;;;;;;;6285508;22;20416;-96
2020/12/12 17:17:13;;;;;;;90.47;57.87;;;;;;;;;;6263302;22;20453;-96
2020/12/12 17:19:41;;;;;;;78.27;52.20;;;;;;;;;;6265582;23;20469;-96
2020/12/12 17:22:10;;;;;;;78.50;54.33;;;;;;;;;;6269051;22;20433;-96
2020/12/12 17:24:36;;;;;;;73.87;50.80;;;;;;;;;;6258095;23;20398;-96
2020/12/12 17:27:02;;;;;;;65.37;43.80;;;;;;;;;;6258508;23;20432;-96
2020/12/12 17:29:29;;;;;;;77.70;49.63;;;;;;;;;;6255174;23;20430;-96
2020/12/12 17:31:55;;;;;;;83.40;54.17;;;;;;;;;;6257892;23;20473;-96
2020/12/12 17:34:24;;;;;;;70.37;47.27;;;;;;;;;;6263291;23;20422;-96
2020/12/12 17:36:55;;;;;;;77.17;49.17;;;;;;;;;;6264175;23;20420;-96
2020/12/12 17:39:23;;;;;;;70.00;47.87;;;;;;;;;;6263141;23;20430;-96
2020/12/12 17:41:50;;;;;;;76.13;47.77;;;;;;;;;;6265505;22;20414;-96
2020/12/12 17:44:17;;;;;;;59.20;42.73;;;;;;;;;;6271324;22;20418;-96
2020/12/12 17:46:48;;;;;;;57.37;39.87;;;;;;;;;;6267901;23;20414;-96
2020/12/12 17:49:17;;;;;;;64.33;43.80;;;;;;;;;;6266584;23;20791;-96
2020/12/12 17:51:45;;;;;;;69.27;44.90;;;;;;;;;;6262921;23;20489;-96
2020/12/12 17:54:12;;;;;;;67.57;42.87;;;;;;;;;;6259278;23;20413;-96
2020/12/12 17:56:38;;;;;;;54.60;38.90;;;;;;;;;;6258245;23;20520;-96
2020/12/12 17:59:07;;;;;;;54.30;37.77;;;;;;;;;;6257023;23;20481;-96
2020/12/12 18:01:34;;;;;;;67.30;45.97;;;;;;;;;;6257199;23;20417;-96
2020/12/12 18:04:03;;;;;;;77.47;54.40;;;;;;;;;;6263988;22;20474;-96
2020/12/12 18:06:31;;;;;;;83.70;55.17;;;;;;;;;;6262214;23;20421;-96
2020/12/12 18:08:57;;;;;;;114.57;74.47;;;;;;;;;;6255274;22;21099;-96
2020/12/12 18:11:24;;;;;;;66.03;47.37;;;;;;;;;;6258513;23;20528;-96
2020/12/12 18:13:51;;;;;;;66.97;44.40;;;;;;;;;;6260511;23;20405;-96
2020/12/12 18:16:17;;;;;;;56.00;40.03;;;;;;;;;;6259526;23;21030;-96
2020/12/12 18:18:44;;;;;;;55.40;38.60;;;;;;;;;;6255483;22;20486;-96
2020/12/12 18:21:10;;;;;;;52.43;33.87;;;;;;;;;;6257288;23;20433;-96
2020/12/12 18:23:36;;;;;;;46.70;33.50;;;;;;;;;;6255453;23;20418;-96
2020/12/12 18:26:02;;;;;;;47.40;33.00;;;;;;;;;;6255050;23;20402;-96
2020/12/12 18:28:29;;;;;;;50.17;36.43;;;;;;;;;;6257351;23;20417;-96
2020/12/12 18:30:56;;;;;;;49.20;35.20;;;;;;;;;;6257072;23;20441;-95
2020/12/12 18:33:22;;;;;;;38.60;30.17;;;;;;;;;;6258484;23;20410;-96
2020/12/12 18:35:48;;;;;;;50.47;35.43;;;;;;;;;;6254993;23;20445;-96
2020/12/12 18:38:15;;;;;;;54.00;34.00;;;;;;;;;;6258516;23;20426;-96
2020/12/12 18:40:41;;;;;;;52.67;36.13;;;;;;;;;;6257059;23;20436;-96
2020/12/12 18:43:08;;;;;;;48.73;34.53;;;;;;;;;;6256890;23;20409;-96
2020/12/12 18:45:35;;;;;;;51.10;36.07;;;;;;;;;;6257822;23;20452;-95
2020/12/12 18:48:02;;;;;;;52.53;37.10;;;;;;;;;;6259057;23;20413;-96
2020/12/12 18:50:28;;;;;;;46.13;33.00;;;;;;;;;;6260997;23;20428;-96
2020/12/12 18:52:55;;;;;;;46.10;34.67;;;;;;;;;;6255469;23;20453;-96
2020/12/12 18:55:21;;;;;;;54.77;36.83;;;;;;;;;;6256697;23;20434;-96
2020/12/12 18:57:48;;;;;;;48.20;33.87;;;;;;;;;;6256459;23;20948;-96
2020/12/12 19:00:18;;;;;;;46.47;33.03;;;;;;;;;;6261051;23;20409;-96
2020/12/12 19:02:45;;;;;;;49.70;37.43;;;;;;;;;;6258113;22;20421;-96
2020/12/12 19:05:11;;;;;;;54.47;36.70;;;;;;;;;;6256915;23;20428;-96
2020/12/12 19:07:38;;;;;;;43.57;33.50;;;;;;;;;;6256924;23;20414;-96
2020/12/12 19:10:05;;;;;;;47.83;35.07;;;;;;;;;;6256246;23;20516;-96
2020/12/12 19:12:31;;;;;;;49.20;38.40;;;;;;;;;;6256016;23;20452;-96
2020/12/12 19:14:57;;;;;;;69.20;48.97;;;;;;;;;;6256450;23;20410;-96
2020/12/12 19:17:23;;;;;;;70.10;48.93;;;;;;;;;;6258279;23;20421;-96
2020/12/12 19:19:50;;;;;;;76.40;50.70;;;;;;;;;;6255833;23;20509;-96
2020/12/12 19:22:17;;;;;;;76.77;53.07;;;;;;;;;;6257194;23;20410;-96
2020/12/12 19:24:45;;;;;;;72.40;49.63;;;;;;;;;;6257207;23;20873;-96
2020/12/12 19:27:11;;;;;;;81.43;57.23;;;;;;;;;;6259378;23;20414;-96
2020/12/12 19:29:38;;;;;;;95.00;63.30;;;;;;;;;;6263184;23;20439;-96
2020/12/12 19:32:05;;;;;;;94.47;64.33;;;;;;;;;;6264189;23;20703;-96
2020/12/12 19:34:31;;;;;;;98.07;68.70;;;;;;;;;;6260900;23;20417;-95
2020/12/12 19:36:59;;;;;;;99.53;63.20;;;;;;;;;;6256182;23;20437;-96
2020/12/12 19:39:38;;;;;;;90.47;61.07;;;;;;;;;;6263275;23;20417;-96
2020/12/12 19:42:04;;;;;;;87.13;58.87;;;;;;;;;;6262215;23;20413;-94
2020/12/12 19:44:31;;;;;;;86.70;58.87;;;;;;;;;;6256979;23;20417;-94
2020/12/12 19:46:57;;;;;;;94.70;61.20;;;;;;;;;;6254429;23;20412;-96
2020/12/12 19:49:25;;;;;;;93.70;62.30;;;;;;;;;;6260414;23;20406;-96
2020/12/12 19:52:05;;;;;;;95.00;63.17;;;;;;;;;;6265374;23;20441;-96
2020/12/12 19:54:32;;;;;;;95.73;65.57;;;;;;;;;;6263231;22;20414;-95
2020/12/12 19:56:59;;;;;;;78.67;57.13;;;;;;;;;;6259401;23;20434;-96
2020/12/12 20:00:09;;;;;;;82.73;58.60;;;;;;;;;;6262630;23;20418;-96
2020/12/12 20:02:39;;;;;;;90.37;59.97;;;;;;;;;;6259176;22;21137;-96